createdAt,value
2019-06-01T00:00:51.739Z,17.63
2019-06-01T00:01:51.728Z,17.63
2019-06-01T00:02:55.767Z,17.68
2019-06-01T00:03:52.722Z,17.65
2019-06-01T00:04:51.704Z,17.60
2019-06-01T00:05:51.683Z,17.65
2019-06-01T00:06:51.673Z,17.55
2019-06-01T00:07:51.662Z,17.71
2019-06-01T00:08:51.665Z,17.57
2019-06-01T00:09:51.637Z,17.60
2019-06-01T00:10:51.634Z,17.54
2019-06-01T00:11:51.617Z,17.49
2019-06-01T00:12:51.609Z,17.47
2019-06-01T00:13:52.517Z,17.46
2019-06-01T00:14:51.597Z,17.49
2019-06-01T00:15:51.580Z,17.47
2019-06-01T00:16:51.572Z,17.46
2019-06-01T00:17:51.557Z,17.40
2019-06-01T00:18:51.554Z,17.45
2019-06-01T00:19:51.531Z,17.47
2019-06-01T00:20:52.661Z,17.47
2019-06-01T00:21:52.265Z,17.49
2019-06-01T00:22:51.836Z,17.47
2019-06-01T00:23:52.777Z,17.51
2019-06-01T00:24:52.260Z,17.43
2019-06-01T00:25:52.837Z,17.55
2019-06-01T00:26:52.102Z,17.53
2019-06-01T00:27:51.469Z,17.57
2019-06-01T00:28:52.914Z,17.47
2019-06-01T00:29:51.442Z,17.46
2019-06-01T00:30:52.058Z,17.53
2019-06-01T00:31:52.112Z,17.45
2019-06-01T00:32:51.438Z,17.46
2019-06-01T00:33:51.717Z,17.46
2019-06-01T00:34:51.841Z,17.49
2019-06-01T00:35:51.615Z,17.45
2019-06-01T00:36:51.972Z,17.40
2019-06-01T00:37:51.772Z,17.45
2019-06-01T00:38:52.005Z,17.33
2019-06-01T00:39:51.987Z,17.40
2019-06-01T00:40:52.072Z,17.39
2019-06-01T00:41:52.449Z,17.35
2019-06-01T00:42:52.466Z,17.27
2019-06-01T00:43:52.396Z,17.32
2019-06-01T00:44:52.278Z,17.35
2019-06-01T00:45:51.457Z,17.27
2019-06-01T00:46:51.244Z,17.20
2019-06-01T00:47:51.236Z,17.24
2019-06-01T00:48:52.133Z,17.17
2019-06-01T00:49:51.234Z,17.15
2019-06-01T00:50:51.203Z,17.18
2019-06-01T00:51:52.150Z,17.20
2019-06-01T00:52:51.427Z,17.20
2019-06-01T00:53:51.836Z,17.15
2019-06-01T00:54:51.726Z,17.12
2019-06-01T00:55:51.618Z,17.07
2019-06-01T00:56:51.687Z,17.22
2019-06-01T00:57:51.886Z,17.06
2019-06-01T00:58:51.993Z,17.00
2019-06-01T00:59:53.191Z,17.00
2019-06-01T01:00:53.328Z,16.98
2019-06-01T01:01:52.385Z,17.05
2019-06-01T01:02:52.203Z,17.03
2019-06-01T01:03:52.277Z,16.96
2019-06-01T01:04:52.435Z,17.03
2019-06-01T01:05:51.056Z,16.96
2019-06-01T01:06:51.042Z,16.99
2019-06-01T01:07:51.815Z,16.95
2019-06-01T01:08:51.032Z,17.02
2019-06-01T01:09:51.010Z,16.98
2019-06-01T01:10:51.131Z,16.95
2019-06-01T01:11:51.277Z,16.92
2019-06-01T01:12:51.149Z,16.96
2019-06-01T01:13:51.324Z,16.95
2019-06-01T01:14:51.310Z,16.99
2019-06-01T01:15:51.374Z,16.99
2019-06-01T01:16:51.696Z,16.92
2019-06-01T01:17:52.020Z,16.99
2019-06-01T01:18:51.888Z,16.98
2019-06-01T01:19:51.955Z,16.87
2019-06-01T01:20:51.961Z,16.84
2019-06-01T01:21:52.032Z,16.88
2019-06-01T01:22:52.153Z,16.87
2019-06-01T01:23:50.902Z,16.84
2019-06-01T01:24:50.841Z,16.92
2019-06-01T01:25:50.838Z,16.90
2019-06-01T01:26:50.836Z,16.84
2019-06-01T01:27:50.812Z,16.87
2019-06-01T01:28:50.810Z,16.81
2019-06-01T01:29:50.991Z,16.81
2019-06-01T01:31:05.133Z,16.78
2019-06-01T01:31:51.809Z,16.81
2019-06-01T01:32:51.748Z,16.84
2019-06-01T01:33:51.414Z,16.70
2019-06-01T01:34:51.527Z,16.72
2019-06-01T01:35:52.605Z,16.75
2019-06-01T01:36:52.574Z,16.72
2019-06-01T01:37:51.859Z,16.77
2019-06-01T01:38:52.080Z,16.69
2019-06-01T01:39:50.683Z,16.66
2019-06-01T01:40:50.676Z,16.67
2019-06-01T01:41:50.677Z,16.62
2019-06-01T01:42:50.656Z,16.65
2019-06-01T01:43:50.649Z,16.55
2019-06-01T01:44:50.645Z,16.70
2019-06-01T01:45:50.710Z,16.62
2019-06-01T01:46:50.754Z,16.63
2019-06-01T01:47:50.862Z,16.59
2019-06-01T01:48:51.911Z,16.62
2019-06-01T01:49:50.577Z,16.62
2019-06-01T01:50:50.567Z,16.65
2019-06-01T01:51:50.574Z,16.66
2019-06-01T01:52:50.693Z,16.65
2019-06-01T01:53:50.641Z,16.65
2019-06-01T01:54:50.687Z,16.66
2019-06-01T01:55:50.914Z,16.60
2019-06-01T01:56:50.525Z,16.66
2019-06-01T01:57:51.188Z,16.63
2019-06-01T01:58:50.487Z,16.67
2019-06-01T01:59:51.272Z,16.66
2019-06-01T02:00:54.066Z,16.69
2019-06-01T02:01:50.458Z,16.69
2019-06-01T02:02:51.812Z,16.62
2019-06-01T02:03:51.569Z,16.63
2019-06-01T02:04:51.628Z,16.60
2019-06-01T02:05:50.797Z,16.62
2019-06-01T02:06:50.399Z,16.59
2019-06-01T02:07:50.943Z,16.66
2019-06-01T02:08:51.020Z,16.62
2019-06-01T02:09:51.068Z,16.62
2019-06-01T02:10:51.218Z,16.67
2019-06-01T02:11:51.393Z,16.59
2019-06-01T02:12:51.339Z,16.57
2019-06-01T02:13:51.478Z,16.60
2019-06-01T02:14:51.585Z,16.60
2019-06-01T02:15:52.102Z,16.62
2019-06-01T02:16:50.310Z,16.59
2019-06-01T02:17:50.313Z,16.63
2019-06-01T02:18:50.291Z,16.54
2019-06-01T02:19:50.265Z,16.52
2019-06-01T02:20:50.250Z,16.52
2019-06-01T02:21:50.248Z,16.59
2019-06-01T02:22:50.254Z,16.50
2019-06-01T02:23:50.217Z,16.54
2019-06-01T02:24:50.211Z,16.51
2019-06-01T02:25:50.204Z,16.51
2019-06-01T02:26:50.187Z,16.51
2019-06-01T02:27:50.209Z,16.51
2019-06-01T02:28:50.172Z,16.44
2019-06-01T02:29:50.156Z,16.41
2019-06-01T02:30:50.151Z,16.45
2019-06-01T02:31:50.136Z,16.44
2019-06-01T02:32:50.124Z,16.47
2019-06-01T02:33:50.144Z,16.47
2019-06-01T02:34:50.125Z,16.42
2019-06-01T02:35:50.098Z,16.44
2019-06-01T02:36:50.083Z,16.42
2019-06-01T02:37:50.069Z,16.34
2019-06-01T02:38:50.073Z,16.36
2019-06-01T02:39:50.055Z,16.27
2019-06-01T02:40:50.039Z,16.32
2019-06-01T02:41:50.028Z,16.37
2019-06-01T02:42:50.038Z,16.37
2019-06-01T02:43:50.008Z,16.33
2019-06-01T02:44:49.998Z,16.30
2019-06-01T02:45:50.000Z,16.32
2019-06-01T02:46:49.973Z,16.34
2019-06-01T02:47:49.982Z,16.32
2019-06-01T02:48:49.956Z,16.25
2019-06-01T02:49:49.942Z,16.26
2019-06-01T02:50:49.937Z,16.30
2019-06-01T02:51:49.918Z,16.26
2019-06-01T02:52:49.908Z,16.25
2019-06-01T02:53:49.919Z,16.22
2019-06-01T02:54:49.899Z,16.23
2019-06-01T02:55:49.888Z,16.17
2019-06-01T02:56:49.868Z,16.22
2019-06-01T02:57:49.859Z,16.14
2019-06-01T02:58:49.869Z,16.16
2019-06-01T02:59:49.840Z,16.18
2019-06-01T03:00:49.831Z,16.17
2019-06-01T03:01:57.071Z,16.18
2019-06-01T03:02:50.810Z,16.18
2019-06-01T03:03:49.832Z,16.11
2019-06-01T03:04:49.780Z,16.11
2019-06-01T03:05:49.770Z,16.18
2019-06-01T03:06:49.759Z,16.08
2019-06-01T03:07:49.748Z,16.22
2019-06-01T03:08:49.739Z,16.11
2019-06-01T03:09:49.746Z,16.22
2019-06-01T03:10:49.718Z,16.10
2019-06-01T03:11:49.709Z,16.04
2019-06-01T03:12:49.705Z,16.08
2019-06-01T03:13:49.705Z,16.07
2019-06-01T03:14:49.691Z,16.06
2019-06-01T03:15:49.663Z,16.03
2019-06-01T03:16:49.653Z,16.04
2019-06-01T03:17:49.643Z,16.10
2019-06-01T03:18:49.639Z,16.06
2019-06-01T03:19:49.644Z,16.03
2019-06-01T03:20:49.609Z,16.10
2019-06-01T03:21:49.626Z,16.01
2019-06-01T03:22:49.591Z,16.06
2019-06-01T03:23:49.582Z,16.06
2019-06-01T03:24:49.590Z,16.10
2019-06-01T03:25:49.558Z,16.07
2019-06-01T03:26:49.550Z,16.04
2019-06-01T03:27:49.535Z,16.07
2019-06-01T03:28:49.532Z,15.98
2019-06-01T03:29:49.546Z,16.10
2019-06-01T03:30:49.514Z,15.99
2019-06-01T03:31:49.494Z,16.01
2019-06-01T03:32:49.496Z,16.01
2019-06-01T03:33:49.475Z,16.06
2019-06-01T03:34:49.464Z,16.04
2019-06-01T03:35:49.461Z,16.14
2019-06-01T03:36:49.456Z,16.06
2019-06-01T03:37:49.433Z,16.17
2019-06-01T03:38:49.420Z,16.08
2019-06-01T03:39:49.407Z,16.08
2019-06-01T03:40:49.411Z,16.16
2019-06-01T03:41:49.398Z,16.03
2019-06-01T03:42:49.424Z,16.13
2019-06-01T03:43:49.365Z,16.03
2019-06-01T03:44:49.355Z,16.03
2019-06-01T03:45:49.358Z,16.14
2019-06-01T03:46:49.334Z,16.16
2019-06-01T03:47:49.332Z,16.06
2019-06-01T03:48:49.312Z,16.13
2019-06-01T03:49:49.311Z,16.08
2019-06-01T03:50:49.308Z,16.14
2019-06-01T03:51:49.280Z,16.13
2019-06-01T03:52:49.275Z,16.08
2019-06-01T03:53:49.261Z,16.17
2019-06-01T03:54:49.267Z,16.18
2019-06-01T03:55:49.268Z,16.17
2019-06-01T03:56:49.231Z,16.18
2019-06-01T03:57:49.228Z,16.22
2019-06-01T03:58:49.208Z,16.27
2019-06-01T03:59:49.194Z,16.27
2019-06-01T04:00:49.184Z,16.22
2019-06-01T04:01:49.203Z,16.27
2019-06-01T04:02:49.163Z,16.29
2019-06-01T04:03:49.158Z,16.30
2019-06-01T04:04:49.141Z,16.30
2019-06-01T04:05:49.140Z,16.36
2019-06-01T04:06:49.158Z,16.36
2019-06-01T04:07:49.114Z,16.42
2019-06-01T04:08:49.101Z,16.47
2019-06-01T04:09:49.090Z,16.47
2019-06-01T04:10:49.079Z,16.54
2019-06-01T04:11:49.083Z,16.54
2019-06-01T04:12:49.057Z,16.65
2019-06-01T04:13:49.052Z,16.63
2019-06-01T04:14:49.037Z,16.57
2019-06-01T04:15:49.025Z,16.67
2019-06-01T04:16:49.063Z,16.55
2019-06-01T04:17:49.004Z,16.66
2019-06-01T04:18:48.992Z,16.73
2019-06-01T04:19:48.991Z,16.75
2019-06-01T04:20:48.975Z,16.77
2019-06-01T04:21:49.001Z,16.70
2019-06-01T04:22:48.968Z,16.84
2019-06-01T04:23:48.941Z,16.81
2019-06-01T04:24:48.949Z,16.87
2019-06-01T04:25:48.955Z,16.82
2019-06-01T04:26:48.911Z,16.81
2019-06-01T04:27:48.965Z,16.85
2019-06-01T04:28:48.913Z,16.96
2019-06-01T04:29:48.926Z,16.99
2019-06-01T04:30:48.866Z,17.05
2019-06-01T04:31:48.857Z,16.99
2019-06-01T04:32:50.457Z,17.00
2019-06-01T04:33:48.835Z,17.20
2019-06-01T04:34:48.831Z,17.14
2019-06-01T04:35:48.820Z,17.22
2019-06-01T04:36:48.804Z,17.18
2019-06-01T04:37:48.803Z,17.20
2019-06-01T04:38:48.781Z,17.25
2019-06-01T04:39:48.797Z,17.30
2019-06-01T04:40:48.766Z,17.40
2019-06-01T04:41:48.752Z,17.47
2019-06-01T04:42:48.783Z,17.57
2019-06-01T04:43:48.729Z,17.66
2019-06-01T04:44:48.742Z,17.71
2019-06-01T04:45:48.737Z,17.86
2019-06-01T04:46:48.698Z,17.87
2019-06-01T04:47:48.745Z,17.92
2019-06-01T04:48:48.674Z,17.92
2019-06-01T04:49:48.664Z,17.96
2019-06-01T04:50:48.659Z,18.01
2019-06-01T04:51:48.660Z,18.09
2019-06-01T04:52:48.662Z,18.02
2019-06-01T04:53:48.671Z,18.07
2019-06-01T04:54:48.652Z,18.07
2019-06-01T04:55:48.642Z,18.04
2019-06-01T04:56:48.633Z,17.99
2019-06-01T04:57:48.604Z,18.07
2019-06-01T04:58:48.570Z,18.09
2019-06-01T04:59:48.581Z,18.10
2019-06-01T05:00:48.550Z,18.07
2019-06-01T05:01:48.541Z,18.09
2019-06-01T05:02:48.550Z,18.21
2019-06-01T05:03:48.530Z,18.26
2019-06-01T05:04:48.509Z,18.38
2019-06-01T05:05:48.500Z,18.50
2019-06-01T05:06:48.486Z,18.62
2019-06-01T05:07:48.478Z,18.69
2019-06-01T05:08:48.485Z,18.68
2019-06-01T05:09:48.453Z,18.78
2019-06-01T05:10:48.445Z,18.75
2019-06-01T05:11:48.440Z,18.84
2019-06-01T05:12:48.424Z,18.93
2019-06-01T05:13:48.433Z,19.02
2019-06-01T05:14:48.398Z,18.96
2019-06-01T05:15:48.387Z,18.99
2019-06-01T05:16:48.394Z,19.09
2019-06-01T05:17:48.366Z,19.01
2019-06-01T05:18:48.353Z,18.94
2019-06-01T05:19:48.365Z,18.89
2019-06-01T05:20:48.345Z,18.82
2019-06-01T05:21:48.326Z,18.82
2019-06-01T05:22:48.321Z,18.78
2019-06-01T05:23:48.303Z,18.78
2019-06-01T05:24:48.305Z,18.75
2019-06-01T05:25:48.280Z,18.75
2019-06-01T05:26:48.270Z,18.75
2019-06-01T05:27:48.262Z,18.65
2019-06-01T05:28:48.252Z,18.69
2019-06-01T05:29:48.331Z,18.65
2019-06-01T05:30:48.228Z,18.72
2019-06-01T05:31:48.225Z,18.65
2019-06-01T05:32:48.222Z,18.64
2019-06-01T05:33:48.197Z,18.56
2019-06-01T05:34:48.201Z,18.71
2019-06-01T05:35:48.174Z,18.72
2019-06-01T05:36:48.187Z,18.74
2019-06-01T05:37:48.166Z,18.72
2019-06-01T05:38:48.149Z,18.75
2019-06-01T05:39:48.154Z,18.89
2019-06-01T05:40:48.126Z,18.79
2019-06-01T05:41:48.154Z,18.93
2019-06-01T05:42:48.106Z,18.93
2019-06-01T05:43:48.103Z,18.91
2019-06-01T05:44:48.072Z,18.99
2019-06-01T05:45:48.078Z,19.02
2019-06-01T05:46:48.051Z,18.99
2019-06-01T05:47:48.041Z,19.13
2019-06-01T05:48:48.032Z,19.12
2019-06-01T05:49:48.025Z,19.13
2019-06-01T05:50:48.021Z,19.23
2019-06-01T05:51:48.008Z,19.32
2019-06-01T05:52:47.998Z,19.32
2019-06-01T05:53:47.978Z,19.28
2019-06-01T05:54:47.966Z,19.20
2019-06-01T05:55:47.974Z,19.21
2019-06-01T05:56:47.946Z,19.20
2019-06-01T05:57:47.942Z,19.20
2019-06-01T05:58:47.924Z,19.31
2019-06-01T05:59:47.916Z,19.35
2019-06-01T06:00:47.913Z,19.43
2019-06-01T06:01:47.898Z,19.40
2019-06-01T06:02:47.883Z,19.64
2019-06-01T06:03:47.882Z,19.79
2019-06-01T06:04:47.866Z,20.26
2019-06-01T06:05:47.875Z,20.23
2019-06-01T06:06:47.840Z,20.05
2019-06-01T06:07:47.859Z,20.01
2019-06-01T06:08:47.821Z,20.33
2019-06-01T06:09:47.802Z,20.60
2019-06-01T06:10:47.792Z,20.42
2019-06-01T06:11:47.824Z,20.13
2019-06-01T06:12:47.773Z,19.89
2019-06-01T06:13:47.763Z,19.85
2019-06-01T06:14:47.756Z,19.78
2019-06-01T06:15:47.745Z,19.67
2019-06-01T06:16:47.746Z,19.71
2019-06-01T06:17:47.732Z,19.60
2019-06-01T06:18:47.711Z,19.68
2019-06-01T06:19:47.702Z,19.58
2019-06-01T06:20:47.692Z,19.76
2019-06-01T06:21:47.719Z,19.72
2019-06-01T06:22:47.680Z,19.75
2019-06-01T06:23:47.655Z,20.13
2019-06-01T06:24:47.669Z,20.91
2019-06-01T06:25:47.640Z,20.61
2019-06-01T06:26:47.682Z,20.54
2019-06-01T06:27:47.613Z,20.97
2019-06-01T06:28:47.605Z,21.71
2019-06-01T06:29:47.594Z,21.40
2019-06-01T06:30:47.586Z,20.97
2019-06-01T06:31:47.582Z,20.88
2019-06-01T06:32:47.575Z,20.61
2019-06-01T06:33:56.110Z,20.57
2019-06-01T06:34:48.540Z,20.42
2019-06-01T06:35:47.529Z,20.26
2019-06-01T06:36:47.542Z,20.19
2019-06-01T06:37:47.513Z,20.05
2019-06-01T06:38:47.503Z,20.08
2019-06-01T06:39:47.491Z,20.00
2019-06-01T06:40:47.476Z,20.04
2019-06-01T06:41:47.464Z,20.27
2019-06-01T06:42:47.475Z,21.55
2019-06-01T06:43:47.456Z,22.63
2019-06-01T06:44:47.441Z,22.06
2019-06-01T06:45:47.422Z,21.58
2019-06-01T06:46:47.418Z,21.06
2019-06-01T06:47:47.653Z,21.09
2019-06-01T06:48:47.393Z,21.16
2019-06-01T06:49:47.380Z,21.33
2019-06-01T06:50:47.381Z,21.59
2019-06-01T06:51:47.358Z,21.52
2019-06-01T06:52:47.352Z,21.67
2019-06-01T06:53:47.350Z,21.68
2019-06-01T06:54:47.327Z,21.56
2019-06-01T06:55:47.330Z,21.42
2019-06-01T06:56:47.316Z,21.46
2019-06-01T06:57:47.294Z,21.59
2019-06-01T06:58:47.308Z,22.01
2019-06-01T06:59:47.283Z,22.04
2019-06-01T07:00:47.285Z,22.19
2019-06-01T07:01:47.275Z,21.96
2019-06-01T07:02:47.257Z,21.93
2019-06-01T07:03:47.242Z,21.83
2019-06-01T07:04:47.219Z,21.71
2019-06-01T07:05:47.216Z,22.17
2019-06-01T07:06:47.199Z,24.05
2019-06-01T07:07:47.202Z,25.67
2019-06-01T07:08:48.953Z,26.03
2019-06-01T07:09:47.171Z,26.93
2019-06-01T07:10:47.165Z,27.66
2019-06-01T07:11:47.155Z,28.02
2019-06-01T07:12:47.151Z,28.40
2019-06-01T07:13:47.150Z,28.83
2019-06-01T07:14:47.131Z,29.86
2019-06-01T07:15:47.116Z,29.81
2019-06-01T07:16:47.097Z,29.20
2019-06-01T07:17:47.097Z,28.97
2019-06-01T07:18:47.084Z,28.65
2019-06-01T07:19:47.091Z,27.88
2019-06-01T07:20:47.068Z,26.59
2019-06-01T07:21:47.040Z,25.57
2019-06-01T07:22:47.062Z,25.75
2019-06-01T07:23:47.040Z,25.79
2019-06-01T07:24:47.024Z,24.83
2019-06-01T07:25:47.021Z,24.67
2019-06-01T07:26:46.999Z,25.64
2019-06-01T07:27:46.979Z,26.91
2019-06-01T07:28:46.971Z,26.81
2019-06-01T07:29:46.991Z,27.01
2019-06-01T07:30:50.588Z,26.98
2019-06-01T07:31:46.937Z,26.71
2019-06-01T07:32:46.928Z,26.20
2019-06-01T07:33:46.924Z,25.17
2019-06-01T07:34:47.183Z,24.63
2019-06-01T07:35:46.898Z,24.66
2019-06-01T07:36:46.909Z,26.13
2019-06-01T07:37:46.894Z,27.03
2019-06-01T07:38:46.871Z,26.86
2019-06-01T07:39:46.878Z,27.62
2019-06-01T07:40:46.856Z,28.36
2019-06-01T07:41:46.849Z,29.17
2019-06-01T07:42:46.845Z,29.71
2019-06-01T07:43:46.831Z,28.65
2019-06-01T07:44:46.826Z,27.59
2019-06-01T07:45:46.792Z,26.28
2019-06-01T07:46:46.799Z,26.01
2019-06-01T07:47:46.780Z,25.89
2019-06-01T07:48:46.771Z,26.66
2019-06-01T07:49:46.779Z,27.90
2019-06-01T07:50:46.743Z,27.02
2019-06-01T07:51:46.914Z,26.88
2019-06-01T07:52:46.727Z,26.29
2019-06-01T07:53:46.719Z,26.23
2019-06-01T07:54:46.712Z,26.29
2019-06-01T07:55:46.708Z,25.41
2019-06-01T07:56:46.683Z,26.46
2019-06-01T07:57:46.735Z,27.42
2019-06-01T07:58:46.698Z,26.97
2019-06-01T07:59:46.651Z,26.50
2019-06-01T08:00:46.738Z,25.94
2019-06-01T08:01:46.674Z,26.08
2019-06-01T08:02:46.618Z,26.19
2019-06-01T08:03:46.610Z,27.46
2019-06-01T08:04:53.590Z,28.62
2019-06-01T08:05:47.615Z,29.35
2019-06-01T08:06:48.484Z,29.89
2019-06-01T08:07:46.568Z,30.01
2019-06-01T08:08:46.562Z,30.07
2019-06-01T08:09:46.546Z,30.00
2019-06-01T08:10:46.541Z,29.45
2019-06-01T08:11:46.552Z,29.57
2019-06-01T08:12:46.529Z,29.03
2019-06-01T08:13:46.512Z,29.79
2019-06-01T08:14:46.499Z,30.13
2019-06-01T08:15:46.507Z,30.42
2019-06-01T08:16:46.524Z,30.64
2019-06-01T08:17:46.475Z,30.66
2019-06-01T08:18:46.471Z,30.54
2019-06-01T08:19:46.450Z,31.42
2019-06-01T08:20:46.445Z,31.52
2019-06-01T08:21:46.509Z,32.02
2019-06-01T08:22:46.418Z,32.36
2019-06-01T08:23:46.412Z,32.99
2019-06-01T08:24:46.408Z,33.44
2019-06-01T08:25:46.390Z,33.52
2019-06-01T08:26:46.396Z,33.82
2019-06-01T08:27:46.367Z,33.82
2019-06-01T08:28:46.361Z,33.78
2019-06-01T08:29:46.355Z,33.47
2019-06-01T08:30:46.345Z,34.12
2019-06-01T08:31:46.350Z,34.52
2019-06-01T08:32:46.323Z,34.60
2019-06-01T08:33:46.315Z,34.87
2019-06-01T08:34:46.309Z,35.22
2019-06-01T08:35:46.292Z,35.28
2019-06-01T08:36:46.302Z,35.07
2019-06-01T08:37:46.282Z,34.84
2019-06-01T08:38:46.273Z,34.49
2019-06-01T08:39:46.261Z,34.23
2019-06-01T08:40:46.248Z,33.79
2019-06-01T08:41:46.271Z,32.95
2019-06-01T08:42:46.228Z,31.68
2019-06-01T08:43:46.221Z,32.10
2019-06-01T08:44:46.211Z,31.20
2019-06-01T08:45:46.207Z,31.10
2019-06-01T08:46:46.196Z,31.65
2019-06-01T08:47:46.192Z,31.40
2019-06-01T08:48:46.197Z,31.50
2019-06-01T08:49:46.160Z,31.50
2019-06-01T08:50:46.375Z,30.83
2019-06-01T08:51:46.150Z,30.23
2019-06-01T08:52:46.249Z,30.46
2019-06-01T08:53:46.120Z,30.22
2019-06-01T08:54:46.108Z,30.30
2019-06-01T08:55:46.114Z,30.94
2019-06-01T08:56:46.089Z,31.84
2019-06-01T08:57:46.119Z,32.85
2019-06-01T08:58:46.079Z,33.44
2019-06-01T08:59:46.063Z,33.75
2019-06-01T09:00:46.057Z,34.01
2019-06-01T09:01:46.066Z,33.78
2019-06-01T09:02:46.044Z,32.71
2019-06-01T09:03:47.041Z,33.06
2019-06-01T09:04:46.016Z,33.26
2019-06-01T09:05:46.009Z,32.96
2019-06-01T09:06:45.997Z,33.43
2019-06-01T09:07:45.996Z,33.66
2019-06-01T09:08:45.985Z,33.63
2019-06-01T09:09:45.971Z,33.34
2019-06-01T09:10:45.962Z,32.49
2019-06-01T09:11:45.974Z,31.62
2019-06-01T09:12:45.982Z,31.71
2019-06-01T09:13:45.961Z,31.74
2019-06-01T09:14:45.945Z,31.59
2019-06-01T09:15:45.914Z,32.07
2019-06-01T09:16:45.907Z,32.73
2019-06-01T09:17:45.895Z,33.34
2019-06-01T09:18:45.897Z,33.62
2019-06-01T09:19:45.876Z,33.96
2019-06-01T09:20:45.864Z,34.27
2019-06-01T09:21:45.859Z,34.52
2019-06-01T09:22:48.197Z,34.94
2019-06-01T09:23:45.847Z,35.06
2019-06-01T09:24:45.831Z,35.00
2019-06-01T09:25:45.820Z,35.03
2019-06-01T09:26:45.839Z,34.88
2019-06-01T09:27:45.805Z,33.63
2019-06-01T09:28:45.813Z,33.00
2019-06-01T09:29:45.798Z,32.99
2019-06-01T09:30:45.777Z,32.85
2019-06-01T09:31:45.773Z,33.41
2019-06-01T09:32:45.753Z,33.53
2019-06-01T09:33:45.762Z,34.28
2019-06-01T09:34:45.744Z,33.77
2019-06-01T09:35:55.604Z,33.40
2019-06-01T09:36:46.716Z,33.65
2019-06-01T09:37:45.985Z,33.63
2019-06-01T09:38:45.724Z,33.81
2019-06-01T09:39:45.705Z,34.08
2019-06-01T09:40:45.765Z,34.49
2019-06-01T09:41:45.677Z,34.33
2019-06-01T09:42:45.668Z,33.77
2019-06-01T09:43:45.654Z,34.03
2019-06-01T09:44:45.722Z,34.36
2019-06-01T09:45:45.637Z,34.40
2019-06-01T09:46:45.631Z,34.53
2019-06-01T09:47:46.008Z,34.76
2019-06-01T09:48:45.613Z,35.18
2019-06-01T09:49:45.621Z,35.22
2019-06-01T09:50:45.595Z,35.15
2019-06-01T09:51:45.586Z,34.86
2019-06-01T09:52:45.578Z,33.78
2019-06-01T09:53:45.627Z,33.57
2019-06-01T09:54:45.584Z,33.90
2019-06-01T09:55:45.557Z,33.72
2019-06-01T09:56:45.541Z,33.82
2019-06-01T09:57:45.537Z,33.15
2019-06-01T09:58:45.527Z,31.37
2019-06-01T09:59:45.530Z,30.83
2019-06-01T10:00:45.509Z,30.72
2019-06-01T10:01:45.582Z,31.22
2019-06-01T10:02:45.487Z,31.16
2019-06-01T10:03:45.506Z,31.03
2019-06-01T10:04:45.496Z,31.00
2019-06-01T10:06:00.763Z,31.30
2019-06-01T10:06:46.469Z,31.99
2019-06-01T10:07:45.445Z,32.32
2019-06-01T10:08:45.441Z,33.12
2019-06-01T10:09:45.428Z,32.36
2019-06-01T10:10:45.437Z,32.91
2019-06-01T10:11:45.415Z,33.41
2019-06-01T10:12:45.404Z,33.97
2019-06-01T10:13:45.387Z,34.84
2019-06-01T10:14:45.388Z,35.59
2019-06-01T10:15:45.396Z,36.37
2019-06-01T10:16:45.367Z,36.78
2019-06-01T10:17:45.355Z,36.71
2019-06-01T10:18:45.352Z,35.68
2019-06-01T10:19:45.349Z,35.89
2019-06-01T10:20:45.336Z,36.30
2019-06-01T10:21:45.333Z,36.57
2019-06-01T10:22:45.325Z,36.75
2019-06-01T10:23:49.063Z,37.16
2019-06-01T10:24:45.296Z,37.39
2019-06-01T10:25:45.286Z,36.83
2019-06-01T10:26:45.313Z,36.30
2019-06-01T10:27:45.277Z,35.85
2019-06-01T10:28:45.266Z,36.41
2019-06-01T10:29:45.259Z,36.55
2019-06-01T10:30:45.313Z,35.03
2019-06-01T10:31:45.250Z,33.37
2019-06-01T10:32:45.236Z,34.33
2019-06-01T10:33:45.228Z,33.74
2019-06-01T10:34:45.217Z,32.87
2019-06-01T10:35:45.215Z,32.21
2019-06-01T10:36:45.216Z,31.32
2019-06-01T10:37:45.187Z,32.21
2019-06-01T10:38:45.231Z,33.21
2019-06-01T10:39:45.180Z,33.06
2019-06-01T10:40:45.165Z,34.19
2019-06-01T10:41:45.196Z,33.87
2019-06-01T10:42:45.150Z,33.18
2019-06-01T10:43:45.136Z,32.77
2019-06-01T10:44:46.042Z,32.91
2019-06-01T10:45:45.121Z,32.16
2019-06-01T10:46:45.130Z,30.19
2019-06-01T10:47:45.133Z,30.10
2019-06-01T10:48:45.097Z,31.22
2019-06-01T10:49:45.090Z,32.10
2019-06-01T10:50:45.085Z,32.50
2019-06-01T10:51:45.066Z,32.80
2019-06-01T10:52:45.086Z,32.09
2019-06-01T10:53:45.085Z,31.84
2019-06-01T10:54:45.039Z,32.29
2019-06-01T10:55:45.031Z,31.74
2019-06-01T10:56:45.031Z,32.91
2019-06-01T10:57:45.015Z,34.26
2019-06-01T10:58:59.318Z,34.99
2019-06-01T10:59:45.994Z,35.77
2019-06-01T11:00:50.576Z,36.27
2019-06-01T11:01:45.978Z,36.48
2019-06-01T11:02:44.975Z,37.02
2019-06-01T11:03:44.986Z,37.60
2019-06-01T11:04:44.952Z,37.87
2019-06-01T11:05:44.952Z,37.31
2019-06-01T11:06:48.638Z,36.31
2019-06-01T11:07:44.979Z,35.56
2019-06-01T11:08:44.948Z,34.49
2019-06-01T11:09:44.931Z,34.34
2019-06-01T11:10:44.910Z,35.39
2019-06-01T11:11:44.906Z,35.25
2019-06-01T11:12:44.898Z,35.95
2019-06-01T11:13:44.888Z,35.61
2019-06-01T11:14:44.912Z,36.00
2019-06-01T11:15:44.872Z,36.15
2019-06-01T11:16:44.870Z,36.28
2019-06-01T11:17:44.860Z,36.75
2019-06-01T11:18:44.854Z,37.34
2019-06-01T11:19:44.894Z,37.99
2019-06-01T11:20:44.831Z,38.31
2019-06-01T11:21:44.826Z,38.71
2019-06-01T11:22:44.816Z,38.77
2019-06-01T11:23:46.527Z,39.27
2019-06-01T11:24:44.798Z,39.62
2019-06-01T11:25:44.799Z,39.56
2019-06-01T11:26:44.782Z,39.01
2019-06-01T11:27:44.771Z,36.65
2019-06-01T11:28:44.776Z,36.55
2019-06-01T11:29:51.274Z,37.12
2019-06-01T11:30:45.783Z,37.65
2019-06-01T11:31:44.758Z,37.78
2019-06-01T11:32:45.147Z,37.62
2019-06-01T11:33:44.734Z,37.59
2019-06-01T11:34:44.732Z,37.18
2019-06-01T11:35:45.410Z,35.52
2019-06-01T11:37:01.834Z,34.90
2019-06-01T11:37:45.701Z,34.91
2019-06-01T11:38:45.121Z,35.15
2019-06-01T11:39:44.878Z,35.91
2019-06-01T11:40:44.856Z,36.77
2019-06-01T11:41:44.866Z,37.31
2019-06-01T11:42:45.087Z,38.15
2019-06-01T11:43:46.145Z,38.82
2019-06-01T11:44:44.945Z,39.34
2019-06-01T11:45:45.228Z,39.48
2019-06-01T11:46:45.112Z,39.57
2019-06-01T11:47:45.098Z,39.80
2019-06-01T11:48:45.390Z,38.97
2019-06-01T11:49:45.034Z,36.30
2019-06-01T11:50:45.365Z,34.93
2019-06-01T11:51:45.272Z,35.02
2019-06-01T11:52:45.480Z,35.18
2019-06-01T11:53:45.689Z,35.44
2019-06-01T11:54:45.436Z,36.43
2019-06-01T11:55:45.565Z,36.62
2019-06-01T11:56:45.553Z,37.47
2019-06-01T11:57:45.780Z,37.91
2019-06-01T11:58:45.640Z,38.15
2019-06-01T11:59:45.706Z,38.53
2019-06-01T12:00:45.868Z,38.02
2019-06-01T12:01:45.889Z,38.26
2019-06-01T12:02:45.833Z,38.75
2019-06-01T12:03:44.506Z,39.12
2019-06-01T12:04:44.496Z,39.62
2019-06-01T12:05:44.488Z,39.43
2019-06-01T12:06:44.485Z,39.16
2019-06-01T12:07:44.481Z,39.27
2019-06-01T12:08:44.490Z,38.65
2019-06-01T12:09:44.467Z,37.35
2019-06-01T12:10:45.320Z,37.21
2019-06-01T12:11:44.447Z,37.87
2019-06-01T12:12:44.475Z,38.41
2019-06-01T12:13:44.580Z,39.28
2019-06-01T12:14:44.560Z,39.92
2019-06-01T12:15:44.511Z,39.47
2019-06-01T12:16:44.851Z,37.54
2019-06-01T12:17:44.838Z,37.70
2019-06-01T12:18:44.767Z,38.30
2019-06-01T12:19:44.780Z,38.62
2019-06-01T12:20:44.939Z,39.07
2019-06-01T12:21:45.269Z,39.78
2019-06-01T12:22:45.117Z,40.04
2019-06-01T12:23:45.675Z,39.97
2019-06-01T12:24:45.070Z,39.44
2019-06-01T12:25:44.438Z,39.59
2019-06-01T12:26:45.487Z,38.44
2019-06-01T12:27:44.326Z,37.58
2019-06-01T12:28:45.748Z,37.24
2019-06-01T12:29:45.731Z,37.68
2019-06-01T12:30:44.307Z,37.68
2019-06-01T12:31:44.321Z,38.49
2019-06-01T12:32:44.299Z,39.09
2019-06-01T12:33:44.290Z,38.28
2019-06-01T12:34:44.277Z,37.25
2019-06-01T12:35:44.286Z,37.35
2019-06-01T12:36:44.710Z,37.13
2019-06-01T12:38:00.888Z,36.74
2019-06-01T12:38:46.395Z,36.33
2019-06-01T12:39:44.459Z,36.75
2019-06-01T12:40:45.256Z,36.03
2019-06-01T12:41:45.522Z,36.03
2019-06-01T12:42:45.483Z,36.49
2019-06-01T12:43:44.221Z,36.34
2019-06-01T12:44:44.232Z,36.56
2019-06-01T12:45:44.242Z,36.86
2019-06-01T12:46:44.191Z,36.31
2019-06-01T12:47:44.193Z,36.60
2019-06-01T12:48:44.177Z,36.62
2019-06-01T12:49:44.175Z,36.21
2019-06-01T12:50:47.807Z,35.56
2019-06-01T12:51:46.716Z,35.58
2019-06-01T12:52:44.476Z,36.31